createdAt,value
2022-12-23T00:00:34.048Z,993.44
2022-12-23T00:01:33.963Z,993.43
2022-12-23T00:02:34.211Z,993.43
2022-12-23T00:03:34.075Z,993.44
2022-12-23T00:04:33.954Z,993.43
2022-12-23T00:05:37.746Z,993.42
2022-12-23T00:06:33.910Z,993.40
2022-12-23T00:07:33.878Z,993.40
2022-12-23T00:08:33.888Z,993.41
2022-12-23T00:09:33.908Z,993.42
2022-12-23T00:10:33.873Z,993.43
2022-12-23T00:11:33.838Z,993.45
2022-12-23T00:12:33.848Z,993.44
2022-12-23T00:13:33.863Z,993.49
2022-12-23T00:14:33.866Z,993.50
2022-12-23T00:15:33.823Z,993.51
2022-12-23T00:16:33.835Z,993.53
2022-12-23T00:17:33.773Z,993.51
2022-12-23T00:18:33.766Z,993.50
2022-12-23T00:19:33.753Z,993.46
2022-12-23T00:20:33.764Z,993.44
2022-12-23T00:21:33.829Z,993.42
2022-12-23T00:22:33.729Z,993.41
2022-12-23T00:23:33.696Z,993.40
2022-12-23T00:24:33.739Z,993.39
2022-12-23T00:25:33.700Z,993.38
2022-12-23T00:26:33.684Z,993.37
2022-12-23T00:27:37.522Z,993.35
2022-12-23T00:28:33.657Z,993.33
2022-12-23T00:29:33.642Z,993.33
2022-12-23T00:30:33.648Z,993.31
2022-12-23T00:31:33.655Z,993.29
2022-12-23T00:32:33.713Z,993.27
2022-12-23T00:33:33.600Z,993.27
2022-12-23T00:34:33.609Z,993.26
2022-12-23T00:35:33.581Z,993.25
2022-12-23T00:36:33.655Z,993.26
2022-12-23T00:37:33.598Z,993.26
2022-12-23T00:38:33.609Z,993.29
2022-12-23T00:39:33.534Z,993.29
2022-12-23T00:40:33.532Z,993.29
2022-12-23T00:41:33.533Z,993.28
2022-12-23T00:42:33.530Z,993.29
2022-12-23T00:43:33.502Z,993.26
2022-12-23T00:44:33.552Z,993.23
2022-12-23T00:45:33.523Z,993.23
2022-12-23T00:46:33.466Z,993.24
2022-12-23T00:47:33.443Z,993.24
2022-12-23T00:48:33.449Z,993.26
2022-12-23T00:49:33.456Z,993.25
2022-12-23T00:50:33.449Z,993.25
2022-12-23T00:51:33.404Z,993.24
2022-12-23T00:52:33.405Z,993.24
2022-12-23T00:53:33.403Z,993.22
2022-12-23T00:54:33.382Z,993.22
2022-12-23T00:55:33.418Z,993.21
2022-12-23T00:56:33.386Z,993.20
2022-12-23T00:57:33.358Z,993.20
2022-12-23T00:58:33.340Z,993.21
2022-12-23T00:59:33.353Z,993.22
2022-12-23T01:00:33.320Z,993.24
2022-12-23T01:01:33.524Z,993.23
2022-12-23T01:02:33.396Z,993.23
2022-12-23T01:03:33.351Z,993.22
2022-12-23T01:04:33.289Z,993.23
2022-12-23T01:05:33.262Z,993.26
2022-12-23T01:06:33.289Z,993.27
2022-12-23T01:07:33.248Z,993.30
2022-12-23T01:08:33.258Z,993.29
2022-12-23T01:09:33.205Z,993.29
2022-12-23T01:10:33.218Z,993.29
2022-12-23T01:11:33.192Z,993.29
2022-12-23T01:12:33.192Z,993.30
2022-12-23T01:13:33.412Z,993.31
2022-12-23T01:14:33.190Z,993.33
2022-12-23T01:15:33.161Z,993.35
2022-12-23T01:16:33.196Z,993.34
2022-12-23T01:17:33.184Z,993.33
2022-12-23T01:18:33.145Z,993.34
2022-12-23T01:19:33.133Z,993.34
2022-12-23T01:20:33.112Z,993.31
2022-12-23T01:21:33.111Z,993.31
2022-12-23T01:22:33.090Z,993.31
2022-12-23T01:23:33.067Z,993.29
2022-12-23T01:24:33.142Z,993.30
2022-12-23T01:25:33.069Z,993.32
2022-12-23T01:26:33.071Z,993.36
2022-12-23T01:27:33.029Z,993.42
2022-12-23T01:28:33.041Z,993.45
2022-12-23T01:29:33.003Z,993.49
2022-12-23T01:30:33.006Z,993.51
2022-12-23T01:31:33.020Z,993.54
2022-12-23T01:32:33.000Z,993.57
2022-12-23T01:33:32.971Z,993.60
2022-12-23T01:34:36.985Z,993.64
2022-12-23T01:35:32.940Z,993.66
2022-12-23T01:36:32.948Z,993.69
2022-12-23T01:37:32.936Z,993.71
2022-12-23T01:38:32.924Z,993.72
2022-12-23T01:39:32.920Z,993.73
2022-12-23T01:40:32.901Z,993.72
2022-12-23T01:41:32.894Z,993.72
2022-12-23T01:42:32.884Z,993.73
2022-12-23T01:43:32.883Z,993.77
2022-12-23T01:44:32.872Z,993.79
2022-12-23T01:45:32.905Z,993.81
2022-12-23T01:46:32.945Z,993.82
2022-12-23T01:47:32.837Z,993.82
2022-12-23T01:48:32.816Z,993.82
2022-12-23T01:49:32.801Z,993.83
2022-12-23T01:50:32.789Z,993.84
2022-12-23T01:51:32.764Z,993.85
2022-12-23T01:52:32.801Z,993.86
2022-12-23T01:53:32.773Z,993.90
2022-12-23T01:54:32.759Z,993.92
2022-12-23T01:55:32.738Z,993.95
2022-12-23T01:56:32.744Z,993.95
2022-12-23T01:57:32.730Z,993.96
2022-12-23T01:58:32.735Z,993.96
2022-12-23T01:59:32.687Z,993.97
2022-12-23T02:00:32.713Z,993.97
2022-12-23T02:01:32.802Z,993.97
2022-12-23T02:02:32.836Z,993.98
2022-12-23T02:03:32.722Z,994.00
2022-12-23T02:04:32.650Z,994.00
2022-12-23T02:05:32.639Z,993.99
2022-12-23T02:06:32.649Z,993.98
2022-12-23T02:07:32.634Z,993.99
2022-12-23T02:08:32.636Z,994.00
2022-12-23T02:09:32.574Z,994.00
2022-12-23T06:00:46.609Z,995.64
2022-12-23T06:01:47.686Z,995.66
2022-12-23T06:02:53.499Z,995.66
2022-12-23T06:03:47.635Z,995.68
2022-12-23T06:04:47.619Z,995.66
2022-12-23T06:05:47.545Z,995.64
2022-12-23T06:06:47.536Z,995.60
2022-12-23T06:07:47.521Z,995.63
2022-12-23T06:08:47.576Z,995.63
2022-12-23T06:09:47.497Z,995.63
2022-12-23T06:10:47.528Z,995.67
2022-12-23T06:11:47.491Z,995.68
2022-12-23T06:12:47.489Z,995.70
2022-12-23T06:13:47.461Z,995.71
2022-12-23T06:14:47.475Z,995.74
2022-12-23T06:15:47.440Z,995.74
2022-12-23T06:16:47.535Z,995.75
2022-12-23T06:17:47.420Z,995.73
2022-12-23T06:18:47.422Z,995.71
2022-12-23T06:19:47.393Z,995.73
2022-12-23T06:20:47.442Z,995.72
2022-12-23T06:21:47.382Z,995.71
2022-12-23T06:22:47.397Z,995.70
2022-12-23T06:23:47.363Z,995.66
2022-12-23T06:24:47.408Z,995.68
2022-12-23T06:25:47.336Z,995.69
2022-12-23T06:26:49.745Z,995.68
2022-12-23T06:27:47.328Z,995.69
2022-12-23T06:28:47.328Z,995.70
2022-12-23T06:29:47.283Z,995.73
2022-12-23T06:30:47.314Z,995.76
2022-12-23T06:31:47.373Z,995.76
2022-12-23T06:32:47.281Z,995.77
2022-12-23T06:33:47.256Z,995.78
2022-12-23T06:34:47.253Z,995.81
2022-12-23T06:35:47.228Z,995.83
2022-12-23T06:36:47.236Z,995.84
2022-12-23T06:37:47.214Z,995.86
2022-12-23T06:38:47.226Z,995.87
2022-12-23T06:39:47.192Z,995.86
2022-12-23T06:40:47.196Z,995.87
2022-12-23T06:41:47.206Z,995.91
2022-12-23T06:42:47.173Z,995.91
2022-12-23T06:43:52.533Z,995.90
2022-12-23T06:44:47.156Z,995.90
2022-12-23T06:45:47.156Z,995.90
2022-12-23T06:46:47.125Z,995.90
2022-12-23T06:47:47.094Z,995.91
2022-12-23T06:48:47.119Z,995.92
2022-12-23T06:49:47.109Z,995.93
2022-12-23T06:50:47.072Z,995.91
2022-12-23T06:51:47.062Z,995.92
2022-12-23T06:52:47.029Z,995.95
2022-12-23T06:53:46.984Z,995.95
2022-12-23T06:54:47.022Z,995.97
2022-12-23T06:55:46.977Z,995.99
2022-12-23T06:56:46.972Z,996.01
2022-12-23T06:57:46.937Z,996.03
2022-12-23T06:58:46.945Z,996.07
2022-12-23T06:59:46.921Z,996.11
2022-12-23T07:00:47.073Z,996.13
2022-12-23T07:01:47.064Z,996.16
2022-12-23T07:02:47.053Z,996.16
2022-12-23T07:03:46.977Z,996.17
2022-12-23T07:04:46.891Z,996.13
2022-12-23T07:05:46.857Z,996.08
2022-12-23T07:06:46.872Z,996.05
2022-12-23T07:07:46.837Z,996.06
2022-12-23T07:08:46.828Z,996.08
2022-12-23T07:09:46.806Z,996.07
2022-12-23T07:10:46.814Z,996.05
2022-12-23T07:11:46.833Z,995.99
2022-12-23T07:12:50.680Z,995.98
2022-12-23T07:13:46.761Z,995.97
2022-12-23T07:14:46.771Z,995.93
2022-12-23T07:15:46.742Z,995.92
2022-12-23T07:16:46.827Z,995.90
2022-12-23T07:17:46.724Z,995.90
2022-12-23T07:18:46.723Z,995.88
2022-12-23T07:19:46.705Z,995.87
2022-12-23T07:20:46.720Z,995.85
2022-12-23T07:21:46.679Z,995.86
2022-12-23T07:22:46.708Z,995.85
2022-12-23T07:23:46.702Z,995.85
2022-12-23T07:24:46.668Z,995.84
2022-12-23T07:25:46.646Z,995.86
2022-12-23T07:26:46.653Z,995.86
2022-12-23T07:27:46.616Z,995.87
2022-12-23T07:28:46.620Z,995.88
2022-12-23T07:29:46.623Z,995.90
2022-12-23T07:30:46.599Z,995.92
2022-12-23T07:31:46.682Z,995.95
2022-12-23T07:32:46.591Z,995.97
2022-12-23T07:33:46.567Z,996.00
2022-12-23T07:34:46.572Z,996.02
2022-12-23T07:35:46.529Z,996.04
2022-12-23T07:36:46.548Z,996.06
2022-12-23T07:37:46.519Z,996.10
2022-12-23T07:38:46.518Z,996.08
2022-12-23T07:39:46.493Z,996.10
2022-12-23T07:40:46.512Z,996.11
2022-12-23T07:41:46.485Z,996.13
2022-12-23T07:42:47.137Z,996.17
2022-12-23T07:43:46.451Z,996.22
2022-12-23T07:44:46.467Z,996.24
2022-12-23T07:45:46.462Z,996.26
2022-12-23T07:46:46.504Z,996.29
2022-12-23T07:47:46.405Z,996.29
2022-12-23T07:48:46.466Z,996.31
2022-12-23T07:49:46.390Z,996.35
2022-12-23T07:50:46.387Z,996.36
2022-12-23T07:51:46.372Z,996.36
2022-12-23T07:52:46.376Z,996.38
2022-12-23T07:53:46.373Z,996.42
2022-12-23T07:54:46.365Z,996.44
2022-12-23T07:55:50.119Z,996.43
2022-12-23T07:56:46.356Z,996.43
2022-12-23T07:57:46.312Z,996.41
2022-12-23T07:58:46.316Z,996.41
2022-12-23T07:59:46.296Z,996.41
2022-12-23T08:00:46.276Z,996.41
2022-12-23T08:01:46.447Z,996.42
2022-12-23T08:02:46.459Z,996.40
2022-12-23T08:03:46.345Z,996.38
2022-12-23T08:04:46.783Z,996.35
2022-12-23T08:05:46.238Z,996.35
2022-12-23T08:06:46.248Z,996.34
2022-12-23T08:07:46.239Z,996.33
2022-12-23T08:08:46.226Z,996.37
2022-12-23T08:09:46.175Z,996.40
2022-12-23T08:10:48.532Z,996.41
2022-12-23T08:11:46.174Z,996.40
2022-12-23T08:12:46.171Z,996.39
2022-12-23T08:13:46.171Z,996.37
2022-12-23T08:14:46.182Z,996.35
2022-12-23T08:15:46.107Z,996.33
2022-12-23T08:16:46.175Z,996.34
2022-12-23T08:17:46.103Z,996.34
2022-12-23T08:18:46.102Z,996.33
2022-12-23T08:19:46.098Z,996.30
2022-12-23T08:20:46.100Z,996.28
2022-12-23T08:21:46.056Z,996.23
2022-12-23T08:22:46.073Z,996.22
2022-12-23T08:23:46.048Z,996.23
2022-12-23T08:24:46.030Z,996.23
2022-12-23T08:25:46.047Z,996.25
2022-12-23T08:26:46.045Z,996.27
2022-12-23T08:27:45.996Z,996.28
2022-12-23T08:28:45.978Z,996.29
2022-12-23T08:29:45.981Z,996.28
2022-12-23T08:30:46.044Z,996.28
2022-12-23T08:31:46.010Z,996.29
2022-12-23T08:32:45.959Z,996.29
2022-12-23T08:33:45.931Z,996.29
2022-12-23T08:34:45.937Z,996.29
2022-12-23T08:35:45.948Z,996.27
2022-12-23T08:36:45.919Z,996.27
2022-12-23T08:37:45.889Z,996.28
2022-12-23T08:38:45.888Z,996.27
2022-12-23T08:39:45.846Z,996.28
2022-12-23T08:40:45.870Z,996.29
2022-12-23T08:41:45.848Z,996.29
2022-12-23T08:42:45.864Z,996.27
2022-12-23T08:43:45.831Z,996.24
2022-12-23T08:44:45.836Z,996.22
2022-12-23T08:45:45.888Z,996.22
2022-12-23T08:46:45.908Z,996.22
2022-12-23T08:47:45.780Z,996.23
2022-12-23T08:48:49.417Z,996.24
2022-12-23T08:49:45.769Z,996.23
2022-12-23T08:50:45.747Z,996.21
2022-12-23T08:51:45.735Z,996.21
2022-12-23T08:52:45.760Z,996.21
2022-12-23T08:53:45.768Z,996.23
2022-12-23T08:54:45.725Z,996.24
2022-12-23T08:55:45.716Z,996.26
2022-12-23T08:56:45.690Z,996.29
2022-12-23T08:57:45.668Z,996.33
2022-12-23T08:58:45.677Z,996.37
2022-12-23T08:59:45.664Z,996.40
2022-12-23T09:00:45.837Z,996.39
2022-12-23T09:01:45.784Z,996.39
2022-12-23T09:02:45.839Z,996.39
2022-12-23T09:03:45.661Z,996.39
2022-12-23T09:04:45.614Z,996.43
2022-12-23T09:05:45.578Z,996.44
2022-12-23T09:06:45.633Z,996.44
2022-12-23T09:07:45.566Z,996.43
2022-12-23T09:08:45.553Z,996.44
2022-12-23T09:09:45.551Z,996.45
2022-12-23T09:10:45.555Z,996.48
2022-12-23T09:11:45.512Z,996.47
2022-12-23T09:12:45.524Z,996.47
2022-12-23T09:13:45.535Z,996.46
2022-12-23T09:14:45.510Z,996.45
2022-12-23T09:15:45.563Z,996.44
2022-12-23T09:16:45.490Z,996.44
2022-12-23T09:17:45.471Z,996.44
2022-12-23T09:18:45.480Z,996.47
2022-12-23T09:19:50.469Z,996.48
2022-12-23T09:20:45.443Z,996.52
2022-12-23T09:21:45.423Z,996.57
2022-12-23T09:22:45.432Z,996.59
2022-12-23T09:23:45.408Z,996.61
2022-12-23T09:24:45.397Z,996.63
2022-12-23T09:25:45.376Z,996.62
2022-12-23T09:26:45.384Z,996.59
2022-12-23T09:27:45.351Z,996.55
2022-12-23T09:28:45.358Z,996.50
2022-12-23T09:29:45.366Z,996.47
2022-12-23T09:30:45.385Z,996.47
2022-12-23T09:31:45.400Z,996.48
2022-12-23T09:32:45.308Z,996.49
2022-12-23T09:33:45.299Z,996.50
2022-12-23T09:34:45.312Z,996.48
2022-12-23T09:35:45.271Z,996.46
2022-12-23T09:36:49.110Z,996.43
2022-12-23T09:37:45.280Z,996.41
2022-12-23T09:38:45.336Z,996.38
2022-12-23T09:39:45.392Z,996.33
2022-12-23T09:40:45.220Z,996.28
2022-12-23T09:41:45.211Z,996.23
2022-12-23T09:42:45.250Z,996.15
2022-12-23T09:43:45.199Z,996.13
2022-12-23T09:44:45.210Z,996.11
2022-12-23T09:45:45.151Z,996.12
2022-12-23T09:46:45.216Z,996.17
2022-12-23T09:47:45.159Z,996.21
2022-12-23T09:48:45.167Z,996.25
2022-12-23T09:49:45.129Z,996.29
2022-12-23T09:50:45.173Z,996.30
2022-12-23T09:51:45.113Z,996.33
2022-12-23T09:52:45.105Z,996.33
2022-12-23T09:53:45.082Z,996.32
2022-12-23T09:54:45.102Z,996.30
2022-12-23T09:55:45.071Z,996.27
2022-12-23T09:56:45.060Z,996.25
2022-12-23T09:57:45.054Z,996.22
2022-12-23T09:58:45.043Z,996.22
2022-12-23T09:59:45.023Z,996.22
2022-12-23T10:00:45.010Z,996.24
2022-12-23T10:01:45.392Z,996.28
2022-12-23T10:02:45.324Z,996.30
2022-12-23T10:03:45.519Z,996.30
2022-12-23T10:04:44.979Z,996.33
2022-12-23T10:05:44.959Z,996.36
2022-12-23T10:06:44.964Z,996.38
2022-12-23T10:07:44.963Z,996.37
2022-12-23T10:08:44.971Z,996.35
2022-12-23T10:09:44.942Z,996.32
2022-12-23T10:10:44.914Z,996.27
2022-12-23T10:11:44.884Z,996.21
2022-12-23T10:12:44.885Z,996.15
2022-12-23T10:13:44.867Z,996.11
2022-12-23T10:14:44.857Z,996.08
2022-12-23T10:15:44.946Z,996.07
2022-12-23T10:16:44.908Z,996.08
2022-12-23T10:17:44.838Z,996.09
2022-12-23T10:18:44.858Z,996.12
2022-12-23T10:19:44.826Z,996.14
2022-12-23T10:20:44.807Z,996.16
2022-12-23T10:21:47.553Z,996.16
2022-12-23T10:22:44.781Z,996.13
2022-12-23T10:23:44.779Z,996.09
2022-12-23T10:24:44.744Z,996.03
2022-12-23T10:25:44.779Z,996.00
2022-12-23T10:26:44.789Z,995.97
2022-12-23T10:27:44.760Z,995.96
2022-12-23T10:28:44.726Z,995.92
2022-12-23T10:29:44.711Z,995.89
2022-12-23T10:31:11.169Z,995.88
2022-12-23T10:31:44.724Z,995.87
2022-12-23T10:32:44.699Z,995.85
2022-12-23T10:33:44.666Z,995.84
2022-12-23T10:34:44.695Z,995.83
2022-12-23T10:35:44.641Z,995.82
2022-12-23T10:36:44.786Z,995.81
2022-12-23T10:37:44.623Z,995.79
2022-12-23T10:38:44.591Z,995.76
2022-12-23T10:39:44.643Z,995.76
2022-12-23T10:40:44.570Z,995.77
2022-12-23T10:41:44.584Z,995.78
2022-12-23T10:42:44.573Z,995.78
2022-12-23T10:43:44.582Z,995.76
2022-12-23T10:44:44.523Z,995.72
2022-12-23T10:45:44.566Z,995.68
2022-12-23T10:46:44.658Z,995.66
2022-12-23T10:47:44.525Z,995.65
2022-12-23T10:48:44.489Z,995.65
2022-12-23T10:49:44.508Z,995.67
2022-12-23T10:50:44.476Z,995.68
2022-12-23T10:51:44.550Z,995.71
2022-12-23T10:52:44.452Z,995.73
2022-12-23T10:53:44.466Z,995.75
2022-12-23T10:54:44.449Z,995.72
2022-12-23T10:55:44.549Z,995.67
2022-12-23T10:56:44.413Z,995.63
2022-12-23T10:57:44.442Z,995.58
2022-12-23T10:58:44.379Z,995.57
2022-12-23T10:59:44.380Z,995.55
2022-12-23T11:00:44.442Z,995.51
2022-12-23T11:01:44.684Z,995.47
2022-12-23T11:02:44.471Z,995.44
2022-12-23T11:03:44.456Z,995.42
2022-12-23T11:04:44.324Z,995.40
2022-12-23T11:05:44.319Z,995.40
2022-12-23T11:06:44.547Z,995.40
2022-12-23T11:07:45.640Z,995.39
2022-12-23T11:08:44.317Z,995.39
2022-12-23T11:09:44.285Z,995.38
2022-12-23T11:10:44.279Z,995.35
2022-12-23T11:11:44.257Z,995.31
2022-12-23T11:12:44.297Z,995.28
2022-12-23T11:13:44.275Z,995.28
2022-12-23T11:14:44.273Z,995.28
2022-12-23T11:15:44.290Z,995.26
2022-12-23T11:16:44.294Z,995.24
2022-12-23T11:17:44.206Z,995.21
2022-12-23T11:18:44.184Z,995.20
2022-12-23T11:19:44.209Z,995.17
2022-12-23T11:20:44.195Z,995.15
2022-12-23T11:21:44.195Z,995.14
2022-12-23T11:22:44.178Z,995.13
2022-12-23T11:23:44.160Z,995.12
2022-12-23T11:24:44.171Z,995.09
2022-12-23T11:25:44.200Z,995.08
2022-12-23T11:26:44.148Z,995.02
2022-12-23T11:27:44.187Z,995.01
2022-12-23T11:28:44.070Z,994.97
2022-12-23T11:29:44.067Z,994.90
2022-12-23T11:30:44.054Z,994.81
2022-12-23T11:31:44.147Z,994.81
2022-12-23T11:32:44.017Z,994.81
2022-12-23T11:33:44.031Z,994.77
2022-12-23T11:34:43.996Z,994.72
2022-12-23T11:35:44.078Z,994.70
2022-12-23T11:36:43.991Z,994.68
2022-12-23T11:37:44.008Z,994.69
2022-12-23T11:38:43.949Z,994.69
2022-12-23T11:39:43.972Z,994.71
2022-12-23T11:40:43.931Z,994.69
2022-12-23T11:41:43.936Z,994.68
2022-12-23T11:42:43.925Z,994.68
2022-12-23T11:43:44.038Z,994.68
2022-12-23T11:44:43.898Z,994.68
2022-12-23T11:45:44.097Z,994.64
2022-12-23T11:46:43.872Z,994.55
2022-12-23T11:47:43.924Z,994.49
2022-12-23T11:48:43.898Z,994.48
2022-12-23T11:49:43.892Z,994.47
2022-12-23T11:50:43.859Z,994.47
2022-12-23T11:51:43.851Z,994.44
2022-12-23T11:52:43.834Z,994.42
2022-12-23T11:53:43.859Z,994.43
2022-12-23T11:54:43.782Z,994.42
2022-12-23T11:55:43.847Z,994.40
2022-12-23T11:56:43.905Z,994.39
2022-12-23T11:57:43.804Z,994.36
2022-12-23T11:58:43.764Z,994.35
2022-12-23T11:59:43.788Z,994.35
2022-12-23T12:00:43.727Z,994.32
2022-12-23T12:01:43.860Z,994.28
2022-12-23T12:02:43.701Z,994.24
2022-12-23T12:03:43.806Z,994.20
2022-12-23T12:04:43.699Z,994.18
2022-12-23T12:05:43.727Z,994.16
2022-12-23T12:06:43.659Z,994.14
2022-12-23T12:07:43.661Z,994.12
2022-12-23T12:08:43.663Z,994.07
2022-12-23T12:09:43.676Z,994.03
2022-12-23T12:10:43.640Z,994.01
2022-12-23T12:11:43.766Z,993.98
2022-12-23T12:12:43.596Z,993.96
2022-12-23T12:13:43.614Z,993.95
2022-12-23T12:14:43.585Z,993.94
2022-12-23T12:15:43.600Z,993.96
2022-12-23T12:16:43.663Z,993.95
2022-12-23T12:17:43.621Z,993.94
2022-12-23T12:18:43.534Z,993.93
2022-12-23T12:19:43.527Z,993.92
2022-12-23T12:20:43.566Z,993.88
2022-12-23T12:21:43.514Z,993.84
2022-12-23T12:22:43.521Z,993.80
2022-12-23T12:23:43.526Z,993.73
2022-12-23T12:24:43.477Z,993.69
2022-12-23T12:25:43.496Z,993.69
2022-12-23T12:26:43.445Z,993.71
2022-12-23T12:27:43.453Z,993.74
2022-12-23T12:28:43.431Z,993.76
2022-12-23T12:29:43.446Z,993.77
2022-12-23T12:30:43.519Z,993.79
2022-12-23T12:31:43.411Z,993.80
2022-12-23T12:32:43.386Z,993.79
2022-12-23T12:33:43.410Z,993.76
2022-12-23T12:34:43.380Z,993.72
2022-12-23T12:35:43.405Z,993.70
2022-12-23T12:36:43.472Z,993.67
2022-12-23T12:37:43.345Z,993.63
2022-12-23T12:38:43.313Z,993.62
2022-12-23T12:39:43.341Z,993.63
2022-12-23T12:40:43.307Z,993.63
2022-12-23T12:41:43.402Z,993.63
2022-12-23T12:42:43.274Z,993.62
2022-12-23T12:43:43.288Z,993.60
2022-12-23T12:44:43.253Z,993.58
2022-12-23T12:45:43.312Z,993.58
2022-12-23T12:46:43.245Z,993.57
2022-12-23T12:48:07.027Z,993.57
2022-12-23T12:48:43.208Z,993.55
2022-12-23T12:49:43.221Z,993.52
2022-12-23T12:50:43.200Z,993.53
2022-12-23T12:51:43.206Z,993.53
2022-12-23T12:52:43.181Z,993.54
2022-12-23T12:53:43.183Z,993.52
2022-12-23T12:54:43.146Z,993.51
2022-12-23T12:55:43.148Z,993.48
2022-12-23T12:56:43.166Z,993.47
2022-12-23T12:57:43.178Z,993.45
2022-12-23T12:58:43.132Z,993.42
2022-12-23T12:59:43.120Z,993.41
2022-12-23T13:00:43.085Z,993.36
2022-12-23T13:01:43.155Z,993.31
2022-12-23T13:02:43.083Z,993.25
2022-12-23T13:03:43.092Z,993.20
2022-12-23T13:04:43.050Z,993.15
2022-12-23T13:05:46.014Z,993.09
2022-12-23T13:06:43.226Z,993.08
2022-12-23T13:07:43.030Z,993.08
2022-12-23T13:08:43.037Z,993.07
2022-12-23T13:09:42.997Z,993.04
2022-12-23T13:10:42.977Z,993.02
2022-12-23T13:11:42.977Z,992.99
2022-12-23T13:12:42.978Z,992.96
2022-12-23T13:13:42.986Z,992.91
2022-12-23T13:14:42.967Z,992.89
2022-12-23T13:15:42.964Z,992.88
2022-12-23T13:16:42.978Z,992.86
2022-12-23T13:17:42.930Z,992.86
2022-12-23T13:18:42.912Z,992.82
2022-12-23T13:19:42.899Z,992.79
2022-12-23T13:20:42.889Z,992.76
2022-12-23T13:21:42.871Z,992.73
2022-12-23T13:22:42.870Z,992.72
2022-12-23T13:23:44.582Z,992.68
2022-12-23T13:24:42.864Z,992.66
2022-12-23T13:25:42.838Z,992.67
2022-12-23T13:26:42.887Z,992.63
2022-12-23T13:27:42.808Z,992.57
2022-12-23T13:28:42.808Z,992.54
2022-12-23T13:29:42.827Z,992.54
2022-12-23T13:30:42.836Z,992.50
2022-12-23T13:31:42.773Z,992.48
2022-12-23T13:32:42.756Z,992.48
2022-12-23T13:33:42.742Z,992.48
2022-12-23T13:34:42.728Z,992.47
2022-12-23T13:35:42.733Z,992.52
2022-12-23T13:36:42.810Z,992.53
2022-12-23T13:37:42.712Z,992.54
2022-12-23T13:38:42.703Z,992.53
2022-12-23T13:39:42.762Z,992.51
2022-12-23T13:40:42.657Z,992.48
2022-12-23T13:41:42.703Z,992.46
2022-12-23T13:42:42.637Z,992.47
2022-12-23T13:43:42.677Z,992.48
2022-12-23T13:44:42.644Z,992.46
2022-12-23T13:45:42.646Z,992.39
2022-12-23T13:46:42.622Z,992.40
2022-12-23T13:47:42.624Z,992.41
2022-12-23T13:48:42.579Z,992.34
2022-12-23T13:49:42.628Z,992.32
2022-12-23T13:50:42.557Z,992.36
2022-12-23T13:51:42.549Z,992.38
2022-12-23T13:52:42.530Z,992.37
2022-12-23T13:53:42.542Z,992.32
2022-12-23T13:54:42.500Z,992.26
2022-12-23T13:55:42.526Z,992.22
2022-12-23T13:56:42.527Z,992.21
2022-12-23T13:57:42.550Z,992.24
2022-12-23T13:58:42.476Z,992.24
2022-12-23T13:59:42.504Z,992.19
2022-12-23T14:00:42.456Z,992.08
2022-12-23T14:01:42.631Z,992.00
2022-12-23T14:02:42.625Z,992.06
2022-12-23T14:03:42.419Z,992.11
2022-12-23T14:04:42.402Z,992.07
2022-12-23T14:05:42.416Z,992.00
2022-12-23T14:06:42.389Z,992.04
2022-12-23T14:07:42.401Z,992.12
2022-12-23T14:08:42.378Z,992.20
2022-12-23T14:09:42.397Z,992.24
2022-12-23T14:10:42.329Z,992.21
2022-12-23T14:11:42.355Z,992.12
2022-12-23T14:12:42.320Z,992.06
2022-12-23T14:13:42.345Z,992.03
2022-12-23T14:14:42.288Z,992.01
2022-12-23T14:15:42.402Z,991.98
2022-12-23T14:16:42.273Z,991.98
2022-12-23T14:17:42.292Z,992.01
2022-12-23T14:18:42.258Z,991.98
2022-12-23T14:19:42.283Z,991.89
2022-12-23T14:20:42.231Z,991.86
2022-12-23T14:21:42.259Z,991.97
2022-12-23T14:22:42.204Z,991.96
2022-12-23T14:23:42.237Z,991.89
2022-12-23T14:24:42.193Z,991.92
2022-12-23T14:25:42.184Z,991.94
2022-12-23T14:26:42.164Z,991.91
2022-12-23T14:27:42.194Z,991.82
2022-12-23T14:28:42.144Z,991.77
2022-12-23T14:29:42.215Z,991.78
2022-12-23T14:30:42.214Z,991.73
2022-12-23T14:31:42.272Z,991.69
2022-12-23T14:32:42.114Z,991.63
2022-12-23T14:33:42.132Z,991.59
2022-12-23T14:34:42.091Z,991.61
2022-12-23T14:35:42.803Z,991.61
2022-12-23T14:36:42.145Z,991.58
2022-12-23T14:37:42.056Z,991.55
2022-12-23T14:38:42.089Z,991.59
2022-12-23T14:39:42.075Z,991.61
2022-12-23T14:40:42.075Z,991.58
2022-12-23T14:41:42.011Z,991.55
2022-12-23T14:42:42.061Z,991.50
2022-12-23T14:43:42.000Z,991.46
2022-12-23T14:44:41.994Z,991.44
2022-12-23T14:45:41.990Z,991.41
2022-12-23T14:46:42.048Z,991.42
2022-12-23T14:47:41.964Z,991.46
2022-12-23T14:48:41.984Z,991.45
2022-12-23T14:49:41.921Z,991.42
2022-12-23T14:50:41.936Z,991.44
2022-12-23T14:51:41.932Z,991.39
2022-12-23T14:52:44.979Z,991.34
2022-12-23T14:53:41.882Z,991.31
2022-12-23T14:54:50.310Z,991.31
2022-12-23T14:55:41.864Z,991.32
2022-12-23T14:56:41.876Z,991.43
2022-12-23T14:57:41.869Z,991.46
2022-12-23T14:58:41.857Z,991.41
2022-12-23T14:59:41.810Z,991.45
2022-12-23T15:00:41.852Z,991.47
2022-12-23T15:01:41.872Z,991.46
2022-12-23T15:02:41.882Z,991.49
2022-12-23T15:03:41.788Z,991.47
2022-12-23T15:04:41.822Z,991.41
2022-12-23T15:05:41.777Z,991.38
2022-12-23T15:06:41.759Z,991.36
2022-12-23T15:07:41.723Z,991.37
2022-12-23T15:08:41.758Z,991.35
2022-12-23T15:09:41.703Z,991.41
2022-12-23T15:10:41.734Z,991.45
2022-12-23T15:11:41.686Z,991.50
2022-12-23T15:12:41.700Z,991.56
2022-12-23T15:13:41.676Z,991.59
2022-12-23T15:14:41.700Z,991.57
2022-12-23T15:15:41.758Z,991.54
2022-12-23T15:16:41.791Z,991.58
2022-12-23T15:17:41.619Z,991.61
2022-12-23T15:18:41.627Z,991.66
2022-12-23T15:19:41.613Z,991.71
2022-12-23T15:20:41.642Z,991.75
2022-12-23T15:21:43.175Z,991.72
2022-12-23T15:22:41.585Z,991.59
2022-12-23T15:23:41.575Z,991.46
2022-12-23T15:24:41.638Z,991.31
2022-12-23T15:25:41.565Z,991.34
2022-12-23T15:26:57.550Z,991.49
2022-12-23T15:27:41.524Z,991.53
2022-12-23T15:28:41.583Z,991.50
2022-12-23T15:29:41.522Z,991.49
2022-12-23T15:30:41.511Z,991.45
2022-12-23T15:31:41.564Z,991.43
2022-12-23T15:32:41.589Z,991.37
2022-12-23T15:34:41.520Z,991.34
2022-12-23T15:35:41.467Z,991.33
2022-12-23T15:36:41.539Z,991.40
2022-12-23T15:37:41.416Z,991.55
2022-12-23T15:38:41.414Z,991.68
2022-12-23T15:39:41.404Z,991.73
2022-12-23T15:40:41.401Z,991.71
2022-12-23T15:41:41.377Z,991.70
2022-12-23T15:42:41.394Z,991.68
2022-12-23T15:43:41.348Z,991.71
2022-12-23T15:44:41.360Z,991.69
2022-12-23T15:45:41.319Z,991.67
2022-12-23T15:46:41.494Z,991.71
2022-12-23T15:47:41.379Z,991.73
2022-12-23T15:48:41.303Z,991.66
2022-12-23T15:49:41.334Z,991.63
2022-12-23T15:50:42.083Z,991.56
2022-12-23T15:52:06.395Z,991.51
2022-12-23T15:52:41.348Z,991.47
2022-12-23T15:53:41.328Z,991.60
2022-12-23T15:54:41.288Z,991.65
2022-12-23T15:55:41.319Z,991.64
2022-12-23T15:56:41.353Z,991.57
2022-12-23T15:57:45.025Z,991.54
2022-12-23T15:58:41.301Z,991.53
2022-12-23T15:59:41.251Z,991.51
2022-12-23T16:00:41.251Z,991.51
2022-12-23T16:01:41.343Z,991.47
2022-12-23T16:03:41.280Z,991.45
2022-12-23T16:04:41.193Z,991.46
2022-12-23T16:05:41.180Z,991.46
2022-12-23T16:06:41.188Z,991.44
2022-12-23T16:07:41.160Z,991.39
2022-12-23T16:08:41.170Z,991.39
2022-12-23T16:09:41.131Z,991.36
2022-12-23T16:10:41.135Z,991.38
2022-12-23T16:11:41.122Z,991.38
2022-12-23T16:12:41.102Z,991.33
2022-12-23T16:13:46.749Z,991.30
2022-12-23T16:14:41.102Z,991.29
2022-12-23T16:15:41.052Z,991.31
2022-12-23T16:16:41.204Z,991.32
2022-12-23T16:17:41.033Z,991.32
2022-12-23T16:18:46.893Z,991.29
2022-12-23T16:19:41.023Z,991.30
2022-12-23T16:20:41.036Z,991.30